sensor_id;sensor_type;location;lat;lon;timestamp;P1;P2;P0
70197;PMS5003;57582;-34.876;138.628;2023-12-04T00:01:51;0.20;0.20;0.00
70197;PMS5003;57582;-34.876;138.628;2023-12-04T00:04:51;0.70;0.00;0.00
70197;PMS5003;57582;-34.876;138.628;2023-12-04T00:07:51;2.33;0.50;0.00
70197;PMS5003;57582;-34.876;138.628;2023-12-04T00:10:52;1.17;1.03;0.17
70197;PMS5003;57582;-34.876;138.628;2023-12-04T00:13:51;0.70;0.43;0.00
70197;PMS5003;57582;-34.876;138.628;2023-12-04T00:16:51;0.83;0.37;0.17
70197;PMS5003;57582;-34.876;138.628;2023-12-04T00:19:51;0.00;0.00;0.00
70197;PMS5003;57582;-34.876;138.628;2023-12-04T00:22:52;0.07;0.07;0.00
70197;PMS5003;57582;-34.876;138.628;2023-12-04T00:25:51;0.00;0.00;0.00
70197;PMS5003;57582;-34.876;138.628;2023-12-04T00:28:51;0.90;0.13;0.00
70197;PMS5003;57582;-34.876;138.628;2023-12-04T00:31:51;0.67;0.13;0.00
70197;PMS5003;57582;-34.876;138.628;2023-12-04T00:34:52;0.03;0.03;0.00
70197;PMS5003;57582;-34.876;138.628;2023-12-04T00:37:51;1.20;1.07;0.27
70197;PMS5003;57582;-34.876;138.628;2023-12-04T00:40:51;0.27;0.27;0.00
70197;PMS5003;57582;-34.876;138.628;2023-12-04T00:43:51;0.43;0.43;0.10
70197;PMS5003;57582;-34.876;138.628;2023-12-04T00:46:52;0.67;0.67;0.00
70197;PMS5003;57582;-34.876;138.628;2023-12-04T00:49:51;0.37;0.37;0.00
70197;PMS5003;57582;-34.876;138.628;2023-12-04T00:52:51;0.50;0.50;0.00
70197;PMS5003;57582;-34.876;138.628;2023-12-04T00:55:51;0.13;0.13;0.00
70197;PMS5003;57582;-34.876;138.628;2023-12-04T00:58:52;0.07;0.07;0.00
70197;PMS5003;57582;-34.876;138.628;2023-12-04T01:01:51;1.00;1.00;0.07
70197;PMS5003;57582;-34.876;138.628;2023-12-04T01:04:51;0.77;0.10;0.00
70197;PMS5003;57582;-34.876;138.628;2023-12-04T01:07:52;0.00;0.00;0.00
70197;PMS5003;57582;-34.876;138.628;2023-12-04T01:10:52;0.30;0.30;0.00
70197;PMS5003;57582;-34.876;138.628;2023-12-04T01:13:51;1.70;0.70;0.00
70197;PMS5003;57582;-34.876;138.628;2023-12-04T01:16:51;0.13;0.13;0.00
70197;PMS5003;57582;-34.876;138.628;2023-12-04T01:19:51;0.27;0.27;0.00
70197;PMS5003;57582;-34.876;138.628;2023-12-04T01:22:52;0.57;0.57;0.00
70197;PMS5003;57582;-34.876;138.628;2023-12-04T01:25:51;0.30;0.30;0.00
70197;PMS5003;57582;-34.876;138.628;2023-12-04T01:28:51;0.00;0.00;0.00
70197;PMS5003;57582;-34.876;138.628;2023-12-04T01:31:51;0.03;0.03;0.00
70197;PMS5003;57582;-34.876;138.628;2023-12-04T01:34:52;0.03;0.03;0.03
70197;PMS5003;57582;-34.876;138.628;2023-12-04T01:37:51;0.20;0.20;0.00
70197;PMS5003;57582;-34.876;138.628;2023-12-04T01:40:51;0.43;0.00;0.00
70197;PMS5003;57582;-34.876;138.628;2023-12-04T01:43:51;1.23;0.00;0.00
70197;PMS5003;57582;-34.876;138.628;2023-12-04T01:46:52;0.20;0.07;0.00
70197;PMS5003;57582;-34.876;138.628;2023-12-04T01:49:51;0.00;0.00;0.00
70197;PMS5003;57582;-34.876;138.628;2023-12-04T01:52:52;0.20;0.10;0.00
70197;PMS5003;57582;-34.876;138.628;2023-12-04T01:55:51;0.37;0.17;0.00
70197;PMS5003;57582;-34.876;138.628;2023-12-04T01:58:52;0.83;0.43;0.00
70197;PMS5003;57582;-34.876;138.628;2023-12-04T02:01:52;0.67;0.27;0.00
70197;PMS5003;57582;-34.876;138.628;2023-12-04T02:04:54;0.00;0.00;0.00
70197;PMS5003;57582;-34.876;138.628;2023-12-04T02:07:51;0.10;0.10;0.00
70197;PMS5003;57582;-34.876;138.628;2023-12-04T02:10:52;0.30;0.30;0.00
70197;PMS5003;57582;-34.876;138.628;2023-12-04T02:13:51;0.00;0.00;0.00
70197;PMS5003;57582;-34.876;138.628;2023-12-04T02:16:52;0.07;0.07;0.00
70197;PMS5003;57582;-34.876;138.628;2023-12-04T02:19:52;0.10;0.10;0.00
70197;PMS5003;57582;-34.876;138.628;2023-12-04T02:22:52;0.33;0.23;0.00
70197;PMS5003;57582;-34.876;138.628;2023-12-04T02:25:54;0.30;0.07;0.00
70197;PMS5003;57582;-34.876;138.628;2023-12-04T02:28:55;0.23;0.23;0.00
70197;PMS5003;57582;-34.876;138.628;2023-12-04T02:31:51;1.87;0.03;0.00
70197;PMS5003;57582;-34.876;138.628;2023-12-04T02:34:53;0.00;0.00;0.00
70197;PMS5003;57582;-34.876;138.628;2023-12-04T02:37:52;0.27;0.27;0.00
70197;PMS5003;57582;-34.876;138.628;2023-12-04T02:40:52;1.20;0.17;0.00
70197;PMS5003;57582;-34.876;138.628;2023-12-04T02:43:51;0.60;0.30;0.10
70197;PMS5003;57582;-34.876;138.628;2023-12-04T02:46:52;0.33;0.07;0.00
70197;PMS5003;57582;-34.876;138.628;2023-12-04T02:49:51;1.43;0.27;0.00
70197;PMS5003;57582;-34.876;138.628;2023-12-04T02:52:51;0.10;0.00;0.00
70197;PMS5003;57582;-34.876;138.628;2023-12-04T02:55:51;0.57;0.00;0.00
70197;PMS5003;57582;-34.876;138.628;2023-12-04T02:58:52;0.00;0.00;0.00
70197;PMS5003;57582;-34.876;138.628;2023-12-04T03:01:52;0.30;0.10;0.03
70197;PMS5003;57582;-34.876;138.628;2023-12-04T03:04:51;0.10;0.10;0.00
70197;PMS5003;57582;-34.876;138.628;2023-12-04T03:07:51;0.80;0.80;0.00
70197;PMS5003;57582;-34.876;138.628;2023-12-04T03:10:52;0.83;0.17;0.00
70197;PMS5003;57582;-34.876;138.628;2023-12-04T03:13:51;0.90;0.83;0.00
70197;PMS5003;57582;-34.876;138.628;2023-12-04T03:16:51;0.33;0.20;0.00
70197;PMS5003;57582;-34.876;138.628;2023-12-04T03:19:52;0.57;0.20;0.00
70197;PMS5003;57582;-34.876;138.628;2023-12-04T03:22:52;1.83;0.60;0.00
70197;PMS5003;57582;-34.876;138.628;2023-12-04T03:25:51;0.77;0.57;0.00
70197;PMS5003;57582;-34.876;138.628;2023-12-04T03:28:51;0.00;0.00;0.00
70197;PMS5003;57582;-34.876;138.628;2023-12-04T03:31:51;0.00;0.00;0.00
70197;PMS5003;57582;-34.876;138.628;2023-12-04T03:34:52;0.43;0.43;0.00
70197;PMS5003;57582;-34.876;138.628;2023-12-04T03:37:52;0.00;0.00;0.00
70197;PMS5003;57582;-34.876;138.628;2023-12-04T03:40:51;0.00;0.00;0.00
70197;PMS5003;57582;-34.876;138.628;2023-12-04T03:43:51;0.53;0.00;0.00
70197;PMS5003;57582;-34.876;138.628;2023-12-04T03:46:52;0.03;0.00;0.00
70197;PMS5003;57582;-34.876;138.628;2023-12-04T03:49:52;0.07;0.07;0.00
70197;PMS5003;57582;-34.876;138.628;2023-12-04T03:52:51;0.17;0.00;0.00
70197;PMS5003;57582;-34.876;138.628;2023-12-04T03:55:51;0.23;0.17;0.00
70197;PMS5003;57582;-34.876;138.628;2023-12-04T03:58:52;0.00;0.00;0.00
70197;PMS5003;57582;-34.876;138.628;2023-12-04T04:01:51;0.10;0.10;0.10
70197;PMS5003;57582;-34.876;138.628;2023-12-04T04:04:51;0.70;0.17;0.00
70197;PMS5003;57582;-34.876;138.628;2023-12-04T04:07:52;0.00;0.00;0.00
70197;PMS5003;57582;-34.876;138.628;2023-12-04T04:10:53;0.53;0.23;0.00
70197;PMS5003;57582;-34.876;138.628;2023-12-04T04:13:51;0.03;0.00;0.00
70197;PMS5003;57582;-34.876;138.628;2023-12-04T04:16:51;0.80;0.47;0.23
70197;PMS5003;57582;-34.876;138.628;2023-12-04T04:19:52;0.37;0.37;0.00
70197;PMS5003;57582;-34.876;138.628;2023-12-04T04:22:52;0.00;0.00;0.00
70197;PMS5003;57582;-34.876;138.628;2023-12-04T04:25:51;0.87;0.50;0.10
70197;PMS5003;57582;-34.876;138.628;2023-12-04T04:28:51;1.30;0.60;0.07
70197;PMS5003;57582;-34.876;138.628;2023-12-04T04:31:52;1.63;0.13;0.00
70197;PMS5003;57582;-34.876;138.628;2023-12-04T04:34:52;0.40;0.40;0.23
70197;PMS5003;57582;-34.876;138.628;2023-12-04T04:37:51;0.20;0.20;0.00
70197;PMS5003;57582;-34.876;138.628;2023-12-04T04:40:52;0.17;0.00;0.00
70197;PMS5003;57582;-34.876;138.628;2023-12-04T04:43:51;0.00;0.00;0.00
70197;PMS5003;57582;-34.876;138.628;2023-12-04T04:46:52;0.00;0.00;0.00
70197;PMS5003;57582;-34.876;138.628;2023-12-04T04:49:51;0.47;0.13;0.00
70197;PMS5003;57582;-34.876;138.628;2023-12-04T04:52:51;1.70;0.87;0.00
70197;PMS5003;57582;-34.876;138.628;2023-12-04T04:55:51;0.70;0.07;0.00
70197;PMS5003;57582;-34.876;138.628;2023-12-04T04:58:53;0.00;0.00;0.00
70197;PMS5003;57582;-34.876;138.628;2023-12-04T05:01:51;0.90;0.90;0.20
70197;PMS5003;57582;-34.876;138.628;2023-12-04T05:04:51;0.40;0.40;0.20
70197;PMS5003;57582;-34.876;138.628;2023-12-04T05:07:51;0.70;0.70;0.00
70197;PMS5003;57582;-34.876;138.628;2023-12-04T05:10:52;0.30;0.10;0.03
70197;PMS5003;57582;-34.876;138.628;2023-12-04T05:13:51;1.13;0.63;0.03
70197;PMS5003;57582;-34.876;138.628;2023-12-04T05:16:52;0.40;0.40;0.17
70197;PMS5003;57582;-34.876;138.628;2023-12-04T05:19:51;0.67;0.67;0.00
70197;PMS5003;57582;-34.876;138.628;2023-12-04T05:22:52;0.60;0.00;0.00
70197;PMS5003;57582;-34.876;138.628;2023-12-04T05:25:52;0.50;0.30;0.27
70197;PMS5003;57582;-34.876;138.628;2023-12-04T05:28:51;0.67;0.67;0.13
70197;PMS5003;57582;-34.876;138.628;2023-12-04T05:31:51;1.83;0.53;0.00
70197;PMS5003;57582;-34.876;138.628;2023-12-04T05:34:52;1.47;0.63;0.00
70197;PMS5003;57582;-34.876;138.628;2023-12-04T05:37:52;1.03;0.83;0.23
70197;PMS5003;57582;-34.876;138.628;2023-12-04T05:40:52;0.23;0.10;0.00
70197;PMS5003;57582;-34.876;138.628;2023-12-04T05:43:52;0.43;0.03;0.00
70197;PMS5003;57582;-34.876;138.628;2023-12-04T05:46:52;0.20;0.20;0.00
70197;PMS5003;57582;-34.876;138.628;2023-12-04T05:49:52;0.67;0.03;0.00
70197;PMS5003;57582;-34.876;138.628;2023-12-04T05:52:52;1.43;0.43;0.00
70197;PMS5003;57582;-34.876;138.628;2023-12-04T05:55:52;0.60;0.60;0.00
70197;PMS5003;57582;-34.876;138.628;2023-12-04T05:58:52;0.00;0.00;0.00
70197;PMS5003;57582;-34.876;138.628;2023-12-04T06:01:52;0.53;0.53;0.00
70197;PMS5003;57582;-34.876;138.628;2023-12-04T06:04:52;0.00;0.00;0.00
70197;PMS5003;57582;-34.876;138.628;2023-12-04T06:07:52;0.70;0.70;0.00
70197;PMS5003;57582;-34.876;138.628;2023-12-04T06:10:53;0.67;0.67;0.17
70197;PMS5003;57582;-34.876;138.628;2023-12-04T06:13:52;0.00;0.00;0.00
70197;PMS5003;57582;-34.876;138.628;2023-12-04T06:16:52;0.47;0.03;0.00
70197;PMS5003;57582;-34.876;138.628;2023-12-04T06:19:52;0.60;0.30;0.00
70197;PMS5003;57582;-34.876;138.628;2023-12-04T06:22:53;0.47;0.37;0.00
70197;PMS5003;57582;-34.876;138.628;2023-12-04T06:25:52;0.67;0.43;0.00
70197;PMS5003;57582;-34.876;138.628;2023-12-04T06:28:52;0.60;0.30;0.00
70197;PMS5003;57582;-34.876;138.628;2023-12-04T06:31:52;0.23;0.00;0.00
70197;PMS5003;57582;-34.876;138.628;2023-12-04T06:34:53;1.23;0.57;0.00
70197;PMS5003;57582;-34.876;138.628;2023-12-04T06:37:54;1.70;0.37;0.00
70197;PMS5003;57582;-34.876;138.628;2023-12-04T06:40:52;0.50;0.07;0.00
70197;PMS5003;57582;-34.876;138.628;2023-12-04T06:43:52;2.47;0.23;0.00
70197;PMS5003;57582;-34.876;138.628;2023-12-04T06:46:53;1.97;0.43;0.00
70197;PMS5003;57582;-34.876;138.628;2023-12-04T06:49:56;0.13;0.13;0.00
70197;PMS5003;57582;-34.876;138.628;2023-12-04T06:52:52;0.93;0.73;0.00
70197;PMS5003;57582;-34.876;138.628;2023-12-04T06:55:52;1.03;0.47;0.27
70197;PMS5003;57582;-34.876;138.628;2023-12-04T06:58:52;0.23;0.10;0.00
70197;PMS5003;57582;-34.876;138.628;2023-12-04T07:01:52;0.27;0.20;0.00
70197;PMS5003;57582;-34.876;138.628;2023-12-04T07:04:52;1.57;0.57;0.50
70197;PMS5003;57582;-34.876;138.628;2023-12-04T07:07:52;0.83;0.60;0.00
70197;PMS5003;57582;-34.876;138.628;2023-12-04T07:10:53;0.70;0.70;0.27
70197;PMS5003;57582;-34.876;138.628;2023-12-04T07:13:52;1.13;0.73;0.33
70197;PMS5003;57582;-34.876;138.628;2023-12-04T07:16:52;0.70;0.20;0.00
70197;PMS5003;57582;-34.876;138.628;2023-12-04T07:19:52;0.73;0.43;0.10
70197;PMS5003;57582;-34.876;138.628;2023-12-04T07:22:52;1.13;0.83;0.00
70197;PMS5003;57582;-34.876;138.628;2023-12-04T07:25:52;0.67;0.53;0.23
70197;PMS5003;57582;-34.876;138.628;2023-12-04T07:28:52;0.37;0.03;0.03
70197;PMS5003;57582;-34.876;138.628;2023-12-04T07:31:52;0.80;0.73;0.37
70197;PMS5003;57582;-34.876;138.628;2023-12-04T07:34:52;1.77;0.40;0.03
70197;PMS5003;57582;-34.876;138.628;2023-12-04T07:37:52;0.97;0.97;0.00
70197;PMS5003;57582;-34.876;138.628;2023-12-04T07:40:52;0.33;0.33;0.03
70197;PMS5003;57582;-34.876;138.628;2023-12-04T07:43:52;0.70;0.70;0.00
70197;PMS5003;57582;-34.876;138.628;2023-12-04T07:46:53;1.03;0.80;0.00
70197;PMS5003;57582;-34.876;138.628;2023-12-04T07:49:52;0.87;0.37;0.00
70197;PMS5003;57582;-34.876;138.628;2023-12-04T07:52:52;1.63;0.67;0.37
70197;PMS5003;57582;-34.876;138.628;2023-12-04T07:55:52;0.07;0.07;0.03
70197;PMS5003;57582;-34.876;138.628;2023-12-04T07:58:52;0.13;0.00;0.00
70197;PMS5003;57582;-34.876;138.628;2023-12-04T08:01:52;3.27;0.07;0.00
70197;PMS5003;57582;-34.876;138.628;2023-12-04T08:04:52;0.83;0.83;0.67
70197;PMS5003;57582;-34.876;138.628;2023-12-04T08:07:52;1.17;0.57;0.30
70197;PMS5003;57582;-34.876;138.628;2023-12-04T08:10:53;2.67;1.10;0.37
70197;PMS5003;57582;-34.876;138.628;2023-12-04T08:13:52;0.20;0.20;0.00
70197;PMS5003;57582;-34.876;138.628;2023-12-04T08:16:52;0.67;0.67;0.13
70197;PMS5003;57582;-34.876;138.628;2023-12-04T08:19:52;0.53;0.53;0.17
70197;PMS5003;57582;-34.876;138.628;2023-12-04T08:22:53;4.43;4.13;2.67
70197;PMS5003;57582;-34.876;138.628;2023-12-04T08:25:52;4.27;2.90;1.67
70197;PMS5003;57582;-34.876;138.628;2023-12-04T08:28:52;2.13;1.23;0.33
70197;PMS5003;57582;-34.876;138.628;2023-12-04T08:31:52;1.17;0.27;0.17
70197;PMS5003;57582;-34.876;138.628;2023-12-04T08:34:53;0.53;0.53;0.17
70197;PMS5003;57582;-34.876;138.628;2023-12-04T08:37:52;1.27;1.27;0.67
70197;PMS5003;57582;-34.876;138.628;2023-12-04T08:40:53;1.17;1.07;0.20
70197;PMS5003;57582;-34.876;138.628;2023-12-04T08:43:52;1.07;0.50;0.17
70197;PMS5003;57582;-34.876;138.628;2023-12-04T08:46:53;0.63;0.60;0.00
70197;PMS5003;57582;-34.876;138.628;2023-12-04T08:49:52;0.53;0.53;0.00
70197;PMS5003;57582;-34.876;138.628;2023-12-04T08:52:52;1.70;1.50;0.57
70197;PMS5003;57582;-34.876;138.628;2023-12-04T08:55:52;1.47;0.90;0.33
70197;PMS5003;57582;-34.876;138.628;2023-12-04T08:58:53;2.53;2.53;0.93
70197;PMS5003;57582;-34.876;138.628;2023-12-04T09:01:52;2.67;2.20;0.53
70197;PMS5003;57582;-34.876;138.628;2023-12-04T09:04:52;1.30;0.90;0.80
70197;PMS5003;57582;-34.876;138.628;2023-12-04T09:07:52;1.63;0.97;0.40
70197;PMS5003;57582;-34.876;138.628;2023-12-04T09:10:53;2.30;1.30;0.30
70197;PMS5003;57582;-34.876;138.628;2023-12-04T09:13:52;0.67;0.67;0.53
70197;PMS5003;57582;-34.876;138.628;2023-12-04T09:16:52;0.87;0.87;0.30
70197;PMS5003;57582;-34.876;138.628;2023-12-04T09:19:52;2.30;1.60;0.60
70197;PMS5003;57582;-34.876;138.628;2023-12-04T09:22:53;2.13;1.03;0.93
70197;PMS5003;57582;-34.876;138.628;2023-12-04T09:25:52;2.63;2.47;0.57
70197;PMS5003;57582;-34.876;138.628;2023-12-04T09:28:52;1.40;1.17;0.43
70197;PMS5003;57582;-34.876;138.628;2023-12-04T09:31:52;0.93;0.93;0.33
70197;PMS5003;57582;-34.876;138.628;2023-12-04T09:34:53;0.67;0.67;0.03
70197;PMS5003;57582;-34.876;138.628;2023-12-04T09:37:52;1.80;1.80;0.80
70197;PMS5003;57582;-34.876;138.628;2023-12-04T09:40:52;1.13;1.13;0.40
70197;PMS5003;57582;-34.876;138.628;2023-12-04T09:43:52;0.83;0.83;0.43
70197;PMS5003;57582;-34.876;138.628;2023-12-04T09:46:53;1.33;0.97;0.37
70197;PMS5003;57582;-34.876;138.628;2023-12-04T09:49:54;1.43;1.13;0.47
70197;PMS5003;57582;-34.876;138.628;2023-12-04T09:52:52;1.70;0.93;0.00
70197;PMS5003;57582;-34.876;138.628;2023-12-04T09:55:54;0.73;0.73;0.23
70197;PMS5003;57582;-34.876;138.628;2023-12-04T09:58:58;2.17;2.17;0.63
70197;PMS5003;57582;-34.876;138.628;2023-12-04T10:01:52;1.87;1.63;0.43
70197;PMS5003;57582;-34.876;138.628;2023-12-04T10:04:52;2.73;2.10;0.60
70197;PMS5003;57582;-34.876;138.628;2023-12-04T10:07:52;1.57;1.50;0.93
70197;PMS5003;57582;-34.876;138.628;2023-12-04T10:10:53;1.50;1.50;0.57
70197;PMS5003;57582;-34.876;138.628;2023-12-04T10:13:54;1.90;1.33;0.23
70197;PMS5003;57582;-34.876;138.628;2023-12-04T10:16:53;1.10;0.83;0.37
70197;PMS5003;57582;-34.876;138.628;2023-12-04T10:20:05;2.53;1.10;0.03
70197;PMS5003;57582;-34.876;138.628;2023-12-04T10:22:58;2.17;1.87;0.97
70197;PMS5003;57582;-34.876;138.628;2023-12-04T10:25:53;0.90;0.90;0.70
70197;PMS5003;57582;-34.876;138.628;2023-12-04T10:29:01;1.73;1.23;0.30
70197;PMS5003;57582;-34.876;138.628;2023-12-04T10:31:52;2.47;0.93;0.40
70197;PMS5003;57582;-34.876;138.628;2023-12-04T10:34:55;1.23;0.77;0.57
70197;PMS5003;57582;-34.876;138.628;2023-12-04T10:37:54;2.37;2.37;1.03
70197;PMS5003;57582;-34.876;138.628;2023-12-04T10:40:52;1.60;1.60;0.50
70197;PMS5003;57582;-34.876;138.628;2023-12-04T10:43:52;1.17;0.23;0.10
70197;PMS5003;57582;-34.876;138.628;2023-12-04T10:46:54;2.30;1.07;0.50
70197;PMS5003;57582;-34.876;138.628;2023-12-04T10:49:53;0.47;0.47;0.00
70197;PMS5003;57582;-34.876;138.628;2023-12-04T10:52:53;1.93;1.10;0.23
70197;PMS5003;57582;-34.876;138.628;2023-12-04T10:55:56;0.70;0.70;0.47
70197;PMS5003;57582;-34.876;138.628;2023-12-04T10:58:54;1.90;1.00;0.30
70197;PMS5003;57582;-34.876;138.628;2023-12-04T11:01:54;2.60;1.30;0.63
70197;PMS5003;57582;-34.876;138.628;2023-12-04T11:04:56;1.73;1.13;0.57
70197;PMS5003;57582;-34.876;138.628;2023-12-04T11:07:57;0.30;0.30;0.00
70197;PMS5003;57582;-34.876;138.628;2023-12-04T11:10:59;2.63;0.87;0.57
70197;PMS5003;57582;-34.876;138.628;2023-12-04T11:13:55;2.50;1.67;0.67
70197;PMS5003;57582;-34.876;138.628;2023-12-04T11:16:59;2.97;1.77;0.57
70197;PMS5003;57582;-34.876;138.628;2023-12-04T11:19:55;1.37;0.93;0.10
70197;PMS5003;57582;-34.876;138.628;2023-12-04T11:22:54;1.53;1.53;0.97
70197;PMS5003;57582;-34.876;138.628;2023-12-04T11:25:53;0.87;0.87;0.77
70197;PMS5003;57582;-34.876;138.628;2023-12-04T11:28:53;2.43;0.90;0.73
70197;PMS5003;57582;-34.876;138.628;2023-12-04T11:31:52;1.37;1.07;0.50
70197;PMS5003;57582;-34.876;138.628;2023-12-04T11:34:59;1.37;1.37;1.00
70197;PMS5003;57582;-34.876;138.628;2023-12-04T11:37:53;3.50;2.10;1.00
70197;PMS5003;57582;-34.876;138.628;2023-12-04T11:40:52;2.63;1.83;0.70
70197;PMS5003;57582;-34.876;138.628;2023-12-04T11:43:55;2.87;1.33;0.30
70197;PMS5003;57582;-34.876;138.628;2023-12-04T11:46:56;1.93;1.20;0.40
70197;PMS5003;57582;-34.876;138.628;2023-12-04T11:49:52;2.47;1.87;0.80
70197;PMS5003;57582;-34.876;138.628;2023-12-04T11:52:53;0.90;0.90;0.00
70197;PMS5003;57582;-34.876;138.628;2023-12-04T11:55:55;1.63;1.17;0.40
70197;PMS5003;57582;-34.876;138.628;2023-12-04T11:58:53;3.73;1.80;0.93
70197;PMS5003;57582;-34.876;138.628;2023-12-04T12:01:55;3.70;1.33;0.53
70197;PMS5003;57582;-34.876;138.628;2023-12-04T12:04:54;2.00;1.63;0.77
70197;PMS5003;57582;-34.876;138.628;2023-12-04T12:07:52;1.57;0.93;0.00
70197;PMS5003;57582;-34.876;138.628;2023-12-04T12:10:53;1.97;0.43;0.00
70197;PMS5003;57582;-34.876;138.628;2023-12-04T12:13:54;0.97;0.83;0.47
70197;PMS5003;57582;-34.876;138.628;2023-12-04T12:16:55;0.70;0.33;0.00
70197;PMS5003;57582;-34.876;138.628;2023-12-04T12:19:54;2.17;1.77;0.63
70197;PMS5003;57582;-34.876;138.628;2023-12-04T12:22:53;1.53;1.03;0.83
70197;PMS5003;57582;-34.876;138.628;2023-12-04T12:25:52;1.13;0.60;0.10
70197;PMS5003;57582;-34.876;138.628;2023-12-04T12:28:53;1.37;1.37;0.33
70197;PMS5003;57582;-34.876;138.628;2023-12-04T12:31:52;1.43;1.00;0.37
70197;PMS5003;57582;-34.876;138.628;2023-12-04T12:34:53;5.63;2.03;0.13
70197;PMS5003;57582;-34.876;138.628;2023-12-04T12:37:53;3.37;1.37;0.67
70197;PMS5003;57582;-34.876;138.628;2023-12-04T12:40:53;2.80;1.73;0.60
70197;PMS5003;57582;-34.876;138.628;2023-12-04T12:43:52;3.87;1.40;0.27
70197;PMS5003;57582;-34.876;138.628;2023-12-04T12:46:54;2.27;1.10;0.20
70197;PMS5003;57582;-34.876;138.628;2023-12-04T12:49:53;2.40;1.73;0.87
70197;PMS5003;57582;-34.876;138.628;2023-12-04T12:52:53;0.93;0.77;0.47
70197;PMS5003;57582;-34.876;138.628;2023-12-04T12:55:52;1.77;1.57;0.33
70197;PMS5003;57582;-34.876;138.628;2023-12-04T12:58:53;1.90;1.03;0.30
70197;PMS5003;57582;-34.876;138.628;2023-12-04T13:01:53;1.03;1.03;0.40
70197;PMS5003;57582;-34.876;138.628;2023-12-04T13:04:52;1.73;1.23;0.53
70197;PMS5003;57582;-34.876;138.628;2023-12-04T13:07:52;2.27;1.10;0.33
70197;PMS5003;57582;-34.876;138.628;2023-12-04T13:10:53;1.57;1.23;0.47
70197;PMS5003;57582;-34.876;138.628;2023-12-04T13:13:52;3.43;2.23;0.90
70197;PMS5003;57582;-34.876;138.628;2023-12-04T13:16:52;1.67;0.83;0.30
70197;PMS5003;57582;-34.876;138.628;2023-12-04T13:19:52;3.13;1.20;0.50
70197;PMS5003;57582;-34.876;138.628;2023-12-04T13:22:53;1.53;0.80;0.77
70197;PMS5003;57582;-34.876;138.628;2023-12-04T13:25:52;1.73;1.73;0.97
70197;PMS5003;57582;-34.876;138.628;2023-12-04T13:28:52;2.67;1.73;0.93
70197;PMS5003;57582;-34.876;138.628;2023-12-04T13:31:52;1.80;1.13;0.40
70197;PMS5003;57582;-34.876;138.628;2023-12-04T13:34:53;1.60;0.87;0.00
70197;PMS5003;57582;-34.876;138.628;2023-12-04T13:37:53;0.47;0.47;0.00
70197;PMS5003;57582;-34.876;138.628;2023-12-04T13:40:53;1.43;1.43;0.37
70197;PMS5003;57582;-34.876;138.628;2023-12-04T13:43:52;3.43;2.30;1.40
70197;PMS5003;57582;-34.876;138.628;2023-12-04T13:46:53;2.20;1.03;0.57
70197;PMS5003;57582;-34.876;138.628;2023-12-04T13:49:52;1.17;1.17;0.53
70197;PMS5003;57582;-34.876;138.628;2023-12-04T13:52:52;1.37;1.23;0.17
70197;PMS5003;57582;-34.876;138.628;2023-12-04T13:55:52;1.33;1.07;0.03
70197;PMS5003;57582;-34.876;138.628;2023-12-04T13:58:53;0.97;0.47;0.10
70197;PMS5003;57582;-34.876;138.628;2023-12-04T14:01:53;1.13;1.03;0.50
70197;PMS5003;57582;-34.876;138.628;2023-12-04T14:04:52;0.87;0.87;0.47
70197;PMS5003;57582;-34.876;138.628;2023-12-04T14:07:52;2.07;2.07;0.33
70197;PMS5003;57582;-34.876;138.628;2023-12-04T14:10:53;1.03;0.63;0.00
70197;PMS5003;57582;-34.876;138.628;2023-12-04T14:13:53;1.07;1.07;0.00
70197;PMS5003;57582;-34.876;138.628;2023-12-04T14:16:52;1.73;1.50;0.07
70197;PMS5003;57582;-34.876;138.628;2023-12-04T14:19:54;0.47;0.47;0.00
70197;PMS5003;57582;-34.876;138.628;2023-12-04T14:22:53;2.37;0.90;0.20
70197;PMS5003;57582;-34.876;138.628;2023-12-04T14:25:53;1.63;1.00;0.00
70197;PMS5003;57582;-34.876;138.628;2023-12-04T14:28:53;2.57;1.30;0.00
70197;PMS5003;57582;-34.876;138.628;2023-12-04T14:31:53;0.47;0.47;0.13
70197;PMS5003;57582;-34.876;138.628;2023-12-04T14:34:53;1.07;1.07;0.40
70197;PMS5003;57582;-34.876;138.628;2023-12-04T14:37:53;2.70;0.20;0.13
70197;PMS5003;57582;-34.876;138.628;2023-12-04T14:40:53;1.60;0.87;0.20
70197;PMS5003;57582;-34.876;138.628;2023-12-04T14:43:53;0.80;0.80;0.00
70197;PMS5003;57582;-34.876;138.628;2023-12-04T14:46:54;0.37;0.37;0.03
70197;PMS5003;57582;-34.876;138.628;2023-12-04T14:49:53;1.53;1.43;0.27
70197;PMS5003;57582;-34.876;138.628;2023-12-04T14:52:53;2.60;1.30;0.00
70197;PMS5003;57582;-34.876;138.628;2023-12-04T14:55:53;0.67;0.53;0.07
70197;PMS5003;57582;-34.876;138.628;2023-12-04T14:58:53;1.67;0.97;0.20
70197;PMS5003;57582;-34.876;138.628;2023-12-04T15:01:53;1.07;0.47;0.30
70197;PMS5003;57582;-34.876;138.628;2023-12-04T15:04:53;0.57;0.57;0.03
70197;PMS5003;57582;-34.876;138.628;2023-12-04T15:07:53;0.87;0.87;0.30
70197;PMS5003;57582;-34.876;138.628;2023-12-04T15:10:54;2.23;1.13;0.50
70197;PMS5003;57582;-34.876;138.628;2023-12-04T15:13:53;0.90;0.57;0.00
70197;PMS5003;57582;-34.876;138.628;2023-12-04T15:16:53;1.87;0.80;0.13
70197;PMS5003;57582;-34.876;138.628;2023-12-04T15:19:53;1.20;1.20;0.33
70197;PMS5003;57582;-34.876;138.628;2023-12-04T15:22:54;1.47;0.77;0.10
70197;PMS5003;57582;-34.876;138.628;2023-12-04T15:25:53;0.33;0.20;0.00
70197;PMS5003;57582;-34.876;138.628;2023-12-04T15:28:53;0.10;0.10;0.00
70197;PMS5003;57582;-34.876;138.628;2023-12-04T15:31:53;0.37;0.37;0.30
70197;PMS5003;57582;-34.876;138.628;2023-12-04T15:34:53;2.37;1.63;0.43
70197;PMS5003;57582;-34.876;138.628;2023-12-04T15:37:53;0.00;0.00;0.00
70197;PMS5003;57582;-34.876;138.628;2023-12-04T15:40:53;1.20;0.67;0.00
70197;PMS5003;57582;-34.876;138.628;2023-12-04T15:43:53;0.80;0.80;0.57
70197;PMS5003;57582;-34.876;138.628;2023-12-04T15:46:53;1.40;0.97;0.60
70197;PMS5003;57582;-34.876;138.628;2023-12-04T15:49:53;0.87;0.87;0.60
70197;PMS5003;57582;-34.876;138.628;2023-12-04T15:52:53;2.13;1.57;0.80
70197;PMS5003;57582;-34.876;138.628;2023-12-04T15:55:53;2.03;1.27;0.17
70197;PMS5003;57582;-34.876;138.628;2023-12-04T15:58:53;1.17;1.17;0.67
70197;PMS5003;57582;-34.876;138.628;2023-12-04T16:01:53;0.93;0.57;0.37
70197;PMS5003;57582;-34.876;138.628;2023-12-04T16:04:53;2.37;1.03;0.23
70197;PMS5003;57582;-34.876;138.628;2023-12-04T16:07:53;1.57;0.50;0.00
70197;PMS5003;57582;-34.876;138.628;2023-12-04T16:10:53;1.53;0.67;0.17
70197;PMS5003;57582;-34.876;138.628;2023-12-04T16:13:53;1.23;1.23;0.37
70197;PMS5003;57582;-34.876;138.628;2023-12-04T16:16:53;2.23;1.50;0.67
70197;PMS5003;57582;-34.876;138.628;2023-12-04T16:19:53;1.17;1.17;0.27
70197;PMS5003;57582;-34.876;138.628;2023-12-04T16:22:54;2.70;1.77;0.80
70197;PMS5003;57582;-34.876;138.628;2023-12-04T16:25:53;1.67;1.67;0.50
70197;PMS5003;57582;-34.876;138.628;2023-12-04T16:28:53;5.10;3.50;1.43
70197;PMS5003;57582;-34.876;138.628;2023-12-04T16:31:53;2.70;2.03;0.77
70197;PMS5003;57582;-34.876;138.628;2023-12-04T16:34:54;4.60;3.23;1.07
70197;PMS5003;57582;-34.876;138.628;2023-12-04T16:37:53;4.20;2.47;1.27
70197;PMS5003;57582;-34.876;138.628;2023-12-04T16:40:53;3.43;3.07;1.70
70197;PMS5003;57582;-34.876;138.628;2023-12-04T16:43:53;4.17;3.47;1.43
70197;PMS5003;57582;-34.876;138.628;2023-12-04T16:46:53;2.87;2.87;1.70
70197;PMS5003;57582;-34.876;138.628;2023-12-04T16:49:53;4.70;2.90;1.03